Time;durP1;ratioP1;P1;durP2;ratioP2;P2;SDS_P1;SDS_P2;PMS_P1;PMS_P2;Temp;Humidity;BMP_temperature;BMP_pressure;BME280_temperature;BME280_humidity;BME280_pressure;Samples;Min_cycle;Max_cycle;Signal;HPM_P1;HPM_P2
2023/03/23 00:01:49;;;;;;;7.30;4.00;;;;;;;;;;4984548;28;20180;-73
2023/03/23 00:04:14;;;;;;;7.68;4.18;;;;;;;;;;4982616;28;20195;-73
2023/03/23 00:06:40;;;;;;;7.40;3.80;;;;;;;;;;4990374;28;20245;-73
2023/03/23 00:09:05;;;;;;;5.25;3.67;;;;;;;;;;4985714;28;20182;-73
2023/03/23 00:11:31;;;;;;;6.68;3.38;;;;;;;;;;4989127;28;20176;-73
2023/03/23 00:13:57;;;;;;;5.28;3.35;;;;;;;;;;4984926;28;20269;-74
2023/03/23 00:16:31;;;;;;;5.22;3.30;;;;;;;;;;4992009;28;20563;-73
2023/03/23 00:18:58;;;;;;;5.70;3.25;;;;;;;;;;4994019;28;20171;-74
2023/03/23 00:21:25;;;;;;;5.05;3.10;;;;;;;;;;4988838;28;20642;-73
2023/03/23 00:23:50;;;;;;;6.50;3.72;;;;;;;;;;4984196;28;20203;-73
2023/03/23 00:26:15;;;;;;;8.73;3.40;;;;;;;;;;4986498;28;20193;-73
2023/03/23 00:28:41;;;;;;;6.00;3.22;;;;;;;;;;4982492;28;20322;-73
2023/03/23 00:31:07;;;;;;;6.20;3.58;;;;;;;;;;4990145;28;20184;-73
2023/03/23 00:33:37;;;;;;;4.93;3.40;;;;;;;;;;4987057;28;20270;-73
2023/03/23 00:36:03;;;;;;;5.15;3.67;;;;;;;;;;4986131;28;20201;-73
2023/03/23 00:38:28;;;;;;;4.22;2.70;;;;;;;;;;4989102;28;20175;-73
2023/03/23 00:40:53;;;;;;;6.32;2.78;;;;;;;;;;4988196;28;20208;-73
2023/03/23 00:43:19;;;;;;;6.65;2.80;;;;;;;;;;4987610;28;20263;-73
2023/03/23 00:45:49;;;;;;;5.28;3.50;;;;;;;;;;4982506;28;20176;-73
2023/03/23 00:48:14;;;;;;;5.75;3.47;;;;;;;;;;4989212;28;20191;-73
2023/03/23 00:50:39;;;;;;;9.13;2.67;;;;;;;;;;4988248;28;20200;-73
2023/03/23 00:53:05;;;;;;;5.03;2.78;;;;;;;;;;4988957;28;20294;-73
2023/03/23 00:55:30;;;;;;;5.28;2.90;;;;;;;;;;4993477;28;20207;-73
2023/03/23 00:57:56;;;;;;;7.45;3.22;;;;;;;;;;4998559;28;20180;-73
2023/03/23 01:00:22;;;;;;;4.22;2.55;;;;;;;;;;4990461;28;20184;-73
2023/03/23 01:02:47;;;;;;;4.15;2.58;;;;;;;;;;4990537;28;20186;-73
2023/03/23 01:05:12;;;;;;;6.55;2.65;;;;;;;;;;4993385;28;20200;-74
2023/03/23 01:07:38;;;;;;;5.00;3.22;;;;;;;;;;4988501;28;20233;-73
2023/03/23 01:10:04;;;;;;;7.45;3.08;;;;;;;;;;4987069;28;20184;-73
2023/03/23 01:12:29;;;;;;;5.68;2.55;;;;;;;;;;4991912;28;20298;-73
2023/03/23 01:14:55;;;;;;;3.95;2.70;;;;;;;;;;4991823;28;20263;-73
2023/03/23 01:17:20;;;;;;;3.47;2.42;;;;;;;;;;4989649;28;20218;-73
2023/03/23 01:19:46;;;;;;;4.60;2.35;;;;;;;;;;4994377;28;20188;-73
2023/03/23 01:22:11;;;;;;;4.28;2.53;;;;;;;;;;4991599;28;20724;-73
2023/03/23 01:24:36;;;;;;;3.70;2.78;;;;;;;;;;4986034;28;20208;-73
2023/03/23 01:27:06;;;;;;;3.88;2.40;;;;;;;;;;4993292;28;20615;-73
2023/03/23 01:29:31;;;;;;;3.83;2.20;;;;;;;;;;4986565;28;20271;-73
2023/03/23 01:31:56;;;;;;;6.28;2.45;;;;;;;;;;4987224;28;20218;-73
2023/03/23 01:34:22;;;;;;;5.88;2.45;;;;;;;;;;4989053;28;20306;-73
2023/03/23 01:36:47;;;;;;;4.18;2.75;;;;;;;;;;4987448;28;20658;-73
2023/03/23 01:39:12;;;;;;;3.30;2.70;;;;;;;;;;4984807;28;20206;-73
2023/03/23 01:41:40;;;;;;;5.75;2.88;;;;;;;;;;4987076;28;20180;-73
2023/03/23 01:44:07;;;;;;;4.47;2.67;;;;;;;;;;4987753;28;20327;-73
2023/03/23 01:46:32;;;;;;;3.72;2.33;;;;;;;;;;4985783;28;20172;-73
2023/03/23 01:49:01;;;;;;;3.45;2.80;;;;;;;;;;4985140;28;20180;-73
2023/03/23 01:51:27;;;;;;;3.53;2.58;;;;;;;;;;4989238;28;20672;-73
2023/03/23 01:53:57;;;;;;;4.30;2.45;;;;;;;;;;4988789;28;20200;-73
2023/03/23 01:56:24;;;;;;;5.65;2.47;;;;;;;;;;4990034;28;20171;-73
2023/03/23 01:58:50;;;;;;;3.97;2.58;;;;;;;;;;4997554;28;20203;-73
2023/03/23 02:01:16;;;;;;;3.97;2.38;;;;;;;;;;4991436;28;20645;-73
2023/03/23 02:03:42;;;;;;;3.03;2.10;;;;;;;;;;4985698;28;20255;-73
2023/03/23 02:06:07;;;;;;;3.15;2.05;;;;;;;;;;4990710;28;20190;-73
2023/03/23 02:08:33;;;;;;;5.63;2.50;;;;;;;;;;4984260;28;20266;-73
2023/03/23 02:10:59;;;;;;;4.03;2.83;;;;;;;;;;4985747;28;20720;-73
2023/03/23 02:13:25;;;;;;;3.05;2.20;;;;;;;;;;4987780;28;20218;-73
2023/03/23 02:16:11;;;;;;;4.45;2.45;;;;;;;;;;4985250;28;20184;-73
2023/03/23 02:18:46;;;;;;;4.75;3.05;;;;;;;;;;4981159;28;20179;-73
2023/03/23 02:21:18;;;;;;;5.95;2.40;;;;;;;;;;4993703;28;20266;-73
2023/03/23 02:23:43;;;;;;;2.80;2.33;;;;;;;;;;4987750;28;20195;-73
2023/03/23 02:26:28;;;;;;;2.78;2.30;;;;;;;;;;4989638;28;20195;-73
2023/03/23 02:29:11;;;;;;;4.90;2.97;;;;;;;;;;4986353;28;20179;-73
2023/03/23 02:31:52;;;;;;;3.42;2.60;;;;;;;;;;4981552;28;20261;-72
2023/03/23 02:34:20;;;;;;;3.17;2.55;;;;;;;;;;4986759;28;20211;-73
2023/03/23 02:36:46;;;;;;;5.43;2.70;;;;;;;;;;4984183;28;20194;-73
2023/03/23 02:39:30;;;;;;;4.28;2.53;;;;;;;;;;4982930;28;20227;-73
2023/03/23 02:41:59;;;;;;;4.72;2.40;;;;;;;;;;4987708;28;20178;-72
2023/03/23 02:44:29;;;;;;;4.90;2.40;;;;;;;;;;4982743;28;20247;-73
2023/03/23 02:46:56;;;;;;;3.67;2.45;;;;;;;;;;4983912;28;20224;-73
2023/03/23 02:49:22;;;;;;;4.30;2.22;;;;;;;;;;4980960;28;20577;-73
2023/03/23 02:51:47;;;;;;;3.42;2.17;;;;;;;;;;4989355;28;20191;-73
2023/03/23 02:54:14;;;;;;;5.50;2.17;;;;;;;;;;4993818;28;20261;-73
2023/03/23 02:56:40;;;;;;;3.85;2.42;;;;;;;;;;4988207;28;20204;-73
2023/03/23 02:59:05;;;;;;;5.85;2.13;;;;;;;;;;4987697;28;20621;-73
2023/03/23 03:01:35;;;;;;;2.97;2.08;;;;;;;;;;4990725;28;20171;-73
2023/03/23 03:04:06;;;;;;;4.65;2.13;;;;;;;;;;4982563;28;20288;-73
2023/03/23 03:06:52;;;;;;;7.97;2.78;;;;;;;;;;4981256;28;20183;-72
2023/03/23 03:09:31;;;;;;;3.80;1.70;;;;;;;;;;4979174;28;20188;-72
2023/03/23 03:12:00;;;;;;;6.63;2.45;;;;;;;;;;4992539;28;20191;-74
2023/03/23 03:14:31;;;;;;;4.38;2.08;;;;;;;;;;4989586;28;20579;-72
2023/03/23 03:17:09;;;;;;;3.55;1.98;;;;;;;;;;4988957;28;20168;-72
2023/03/23 03:19:37;;;;;;;3.00;1.75;;;;;;;;;;4985000;28;20183;-72
2023/03/23 03:22:04;;;;;;;3.03;1.80;;;;;;;;;;4991676;28;20187;-72
2023/03/23 03:24:31;;;;;;;2.35;1.40;;;;;;;;;;4984703;28;20211;-72
2023/03/23 03:26:59;;;;;;;6.10;1.70;;;;;;;;;;4983156;28;20520;-72
2023/03/23 03:29:26;;;;;;;2.97;1.92;;;;;;;;;;4988444;28;20175;-72
2023/03/23 03:31:55;;;;;;;5.97;2.50;;;;;;;;;;4993685;28;20189;-72
2023/03/23 03:34:21;;;;;;;3.85;1.55;;;;;;;;;;4990632;28;20206;-72
2023/03/23 03:36:48;;;;;;;3.15;1.70;;;;;;;;;;4985620;28;20267;-73
2023/03/23 03:39:15;;;;;;;4.88;1.80;;;;;;;;;;4984011;28;20230;-72
2023/03/23 03:41:40;;;;;;;5.97;1.85;;;;;;;;;;4986785;28;20180;-72
2023/03/23 03:44:06;;;;;;;5.03;1.60;;;;;;;;;;4982748;28;20200;-72
2023/03/23 03:46:31;;;;;;;4.95;2.00;;;;;;;;;;4985504;28;20183;-72
2023/03/23 03:48:57;;;;;;;3.80;1.67;;;;;;;;;;4981794;28;20176;-72
2023/03/23 03:51:23;;;;;;;3.97;1.67;;;;;;;;;;4987624;28;20175;-72
2023/03/23 03:53:48;;;;;;;4.15;1.60;;;;;;;;;;4993527;28;20234;-72
2023/03/23 03:56:13;;;;;;;2.75;1.75;;;;;;;;;;4991308;28;20194;-72
2023/03/23 03:58:42;;;;;;;3.00;1.55;;;;;;;;;;4980274;28;20190;-72
2023/03/23 04:01:09;;;;;;;4.35;1.73;;;;;;;;;;4990535;28;20168;-72
2023/03/23 04:03:34;;;;;;;5.07;2.00;;;;;;;;;;4981761;28;20467;-72
2023/03/23 04:06:00;;;;;;;5.15;1.77;;;;;;;;;;4990891;28;20182;-72
2023/03/23 04:08:26;;;;;;;4.03;1.73;;;;;;;;;;4984859;28;20179;-72
2023/03/23 04:10:52;;;;;;;4.57;1.98;;;;;;;;;;4982387;28;20558;-74
2023/03/23 04:13:17;;;;;;;6.13;1.73;;;;;;;;;;4985116;28;20259;-74
2023/03/23 04:15:43;;;;;;;3.33;1.30;;;;;;;;;;4982825;28;20171;-73
2023/03/23 04:18:09;;;;;;;6.63;1.58;;;;;;;;;;4985399;28;20229;-74
2023/03/23 04:20:34;;;;;;;2.95;1.40;;;;;;;;;;4984645;28;20591;-74
2023/03/23 04:23:00;;;;;;;3.38;1.67;;;;;;;;;;4984927;28;20218;-73
2023/03/23 04:25:27;;;;;;;4.38;1.65;;;;;;;;;;4979922;28;20218;-73
2023/03/23 04:27:52;;;;;;;3.42;1.50;;;;;;;;;;4989398;28;20171;-73
2023/03/23 04:30:22;;;;;;;2.58;1.05;;;;;;;;;;4989138;28;20676;-73
2023/03/23 04:32:50;;;;;;;7.13;2.20;;;;;;;;;;4986647;28;20180;-73
2023/03/23 04:35:16;;;;;;;4.03;1.70;;;;;;;;;;4984061;28;20199;-72
2023/03/23 04:37:42;;;;;;;7.13;2.25;;;;;;;;;;4983493;28;20203;-73
2023/03/23 04:40:11;;;;;;;4.85;1.50;;;;;;;;;;4988197;28;20254;-73
2023/03/23 04:42:37;;;;;;;20.35;3.10;;;;;;;;;;4984517;28;20242;-73
2023/03/23 04:45:05;;;;;;;5.28;2.05;;;;;;;;;;4988544;28;20662;-72
2023/03/23 04:47:32;;;;;;;5.65;2.28;;;;;;;;;;4987338;28;20234;-72
2023/03/23 04:49:57;;;;;;;10.07;1.70;;;;;;;;;;4990131;28;20222;-72
2023/03/23 04:52:24;;;;;;;4.57;1.70;;;;;;;;;;4986740;28;20171;-73
2023/03/23 04:54:50;;;;;;;2.47;1.42;;;;;;;;;;4990604;28;20204;-73
2023/03/23 04:57:15;;;;;;;5.28;2.08;;;;;;;;;;4982230;28;20657;-74
2023/03/23 04:59:41;;;;;;;8.82;2.38;;;;;;;;;;4985213;28;20182;-73
2023/03/23 05:02:06;;;;;;;8.70;2.20;;;;;;;;;;4983748;28;20183;-72
2023/03/23 05:04:33;;;;;;;6.82;2.17;;;;;;;;;;4984966;28;20721;-73
2023/03/23 05:06:58;;;;;;;4.68;1.52;;;;;;;;;;4978233;28;20192;-73
2023/03/23 05:09:23;;;;;;;6.80;1.73;;;;;;;;;;4984947;28;20179;-73
2023/03/23 05:11:49;;;;;;;4.75;1.75;;;;;;;;;;4980543;28;20250;-72
2023/03/23 05:14:14;;;;;;;5.63;2.50;;;;;;;;;;4989874;28;20199;-73
2023/03/23 05:16:40;;;;;;;8.77;2.35;;;;;;;;;;4983616;28;20186;-72
2023/03/23 05:19:05;;;;;;;7.18;1.60;;;;;;;;;;4983471;28;20179;-72
2023/03/23 05:21:30;;;;;;;11.65;2.15;;;;;;;;;;4983969;28;20176;-72
2023/03/23 05:23:56;;;;;;;12.90;2.23;;;;;;;;;;4981606;28;20196;-72
2023/03/23 05:26:21;;;;;;;5.78;2.40;;;;;;;;;;4992219;28;20184;-72
2023/03/23 05:28:48;;;;;;;5.95;1.95;;;;;;;;;;4984167;28;20188;-72
2023/03/23 05:31:13;;;;;;;5.57;1.90;;;;;;;;;;4978957;28;20252;-72
2023/03/23 05:33:38;;;;;;;7.13;1.97;;;;;;;;;;4985817;28;20252;-72
2023/03/23 05:36:06;;;;;;;10.38;2.90;;;;;;;;;;4982039;28;20187;-72
2023/03/23 05:38:31;;;;;;;5.28;2.25;;;;;;;;;;4987215;28;20608;-72
2023/03/23 05:41:02;;;;;;;5.20;2.20;;;;;;;;;;4984231;28;20260;-72
2023/03/23 05:43:27;;;;;;;10.07;2.10;;;;;;;;;;4990771;28;20180;-72
2023/03/23 05:45:53;;;;;;;9.10;2.00;;;;;;;;;;4982232;28;20546;-72
2023/03/23 05:48:18;;;;;;;4.68;2.13;;;;;;;;;;4985895;28;20572;-72
2023/03/23 05:50:43;;;;;;;4.90;2.25;;;;;;;;;;4985596;28;20183;-72
2023/03/23 05:53:09;;;;;;;7.07;2.13;;;;;;;;;;4986782;28;20179;-72
2023/03/23 05:55:35;;;;;;;7.00;2.03;;;;;;;;;;4993138;28;20200;-72
2023/03/23 05:58:00;;;;;;;6.32;2.55;;;;;;;;;;4985175;28;20203;-72
2023/03/23 06:00:28;;;;;;;5.90;1.77;;;;;;;;;;4987560;28;20169;-72
2023/03/23 06:02:57;;;;;;;6.60;2.05;;;;;;;;;;4985398;28;20223;-72
2023/03/23 06:05:23;;;;;;;8.90;3.33;;;;;;;;;;4985821;28;20200;-72
2023/03/23 06:07:48;;;;;;;8.68;1.98;;;;;;;;;;4988919;28;20176;-73
2023/03/23 06:10:14;;;;;;;6.63;1.95;;;;;;;;;;4985743;28;20712;-73
2023/03/23 06:12:40;;;;;;;9.87;2.67;;;;;;;;;;4993685;28;20669;-73
2023/03/23 06:15:06;;;;;;;6.30;2.00;;;;;;;;;;4982337;28;20238;-73
2023/03/23 06:17:31;;;;;;;8.85;2.40;;;;;;;;;;4983505;28;20176;-73
2023/03/23 06:19:57;;;;;;;8.93;2.23;;;;;;;;;;4981613;28;20170;-73
2023/03/23 06:22:22;;;;;;;8.98;2.38;;;;;;;;;;4984340;28;20689;-73
2023/03/23 06:24:48;;;;;;;7.13;1.90;;;;;;;;;;4984653;28;20307;-74
2023/03/23 06:27:14;;;;;;;9.30;3.03;;;;;;;;;;4986625;28;20183;-73
2023/03/23 06:29:39;;;;;;;6.57;2.35;;;;;;;;;;4990039;28;20553;-73
2023/03/23 06:32:05;;;;;;;6.23;3.23;;;;;;;;;;4986316;28;20279;-74
2023/03/23 06:34:30;;;;;;;12.00;2.47;;;;;;;;;;4982369;28;20657;-73
2023/03/23 06:36:55;;;;;;;5.70;2.22;;;;;;;;;;4987852;28;20172;-74
2023/03/23 06:39:22;;;;;;;10.90;2.40;;;;;;;;;;4984959;28;20292;-74
2023/03/23 06:41:47;;;;;;;7.05;2.72;;;;;;;;;;4986925;28;20175;-74
2023/03/23 06:44:13;;;;;;;9.57;2.57;;;;;;;;;;4981079;28;20211;-74
2023/03/23 06:46:38;;;;;;;5.30;2.33;;;;;;;;;;4987836;28;20183;-73
2023/03/23 06:49:03;;;;;;;8.02;2.58;;;;;;;;;;4983113;28;20176;-74
2023/03/23 06:51:28;;;;;;;5.10;1.53;;;;;;;;;;4993742;28;20203;-73
2023/03/23 06:53:54;;;;;;;6.57;1.83;;;;;;;;;;4986674;28;20245;-73
2023/03/23 06:56:20;;;;;;;7.63;2.22;;;;;;;;;;4994197;28;20168;-74
2023/03/23 06:58:45;;;;;;;5.75;2.13;;;;;;;;;;4983292;28;20180;-73
2023/03/23 07:01:11;;;;;;;6.15;2.25;;;;;;;;;;4983656;28;20349;-73
2023/03/23 07:03:36;;;;;;;4.32;2.15;;;;;;;;;;4991663;28;20270;-73
2023/03/23 07:06:03;;;;;;;7.95;2.63;;;;;;;;;;4984378;28;20230;-73
2023/03/23 07:08:28;;;;;;;8.97;2.70;;;;;;;;;;4981921;28;20180;-73
2023/03/23 07:10:54;;;;;;;10.50;3.70;;;;;;;;;;4984824;28;20184;-74
2023/03/23 07:13:20;;;;;;;5.90;1.95;;;;;;;;;;4996175;28;20706;-74
2023/03/23 07:15:45;;;;;;;8.70;1.90;;;;;;;;;;4987978;28;20180;-74
2023/03/23 07:18:10;;;;;;;7.13;2.10;;;;;;;;;;4987437;28;20225;-74
2023/03/23 07:20:36;;;;;;;5.43;1.90;;;;;;;;;;4986184;28;20311;-74
2023/03/23 07:23:02;;;;;;;8.03;2.00;;;;;;;;;;4990195;28;20545;-73
2023/03/23 07:25:27;;;;;;;8.18;2.63;;;;;;;;;;4989270;28;20703;-74
2023/03/23 07:27:52;;;;;;;9.30;3.25;;;;;;;;;;4983338;28;20187;-74
2023/03/23 07:30:17;;;;;;;9.98;2.10;;;;;;;;;;4981211;28;20187;-73
2023/03/23 07:32:43;;;;;;;6.70;2.40;;;;;;;;;;4985281;28;20176;-74
2023/03/23 07:35:09;;;;;;;6.70;2.05;;;;;;;;;;4984930;28;20227;-74
2023/03/23 07:37:35;;;;;;;8.05;2.58;;;;;;;;;;4980765;28;20175;-74
2023/03/23 07:40:08;;;;;;;5.95;2.25;;;;;;;;;;4983833;28;20190;-73
2023/03/23 07:42:33;;;;;;;7.20;2.67;;;;;;;;;;4981777;28;20173;-74
2023/03/23 07:44:58;;;;;;;9.95;3.20;;;;;;;;;;4986199;28;20306;-74
2023/03/23 07:47:24;;;;;;;6.65;2.95;;;;;;;;;;4989012;28;20218;-74
2023/03/23 07:49:49;;;;;;;8.90;3.47;;;;;;;;;;4986921;28;20176;-74
2023/03/23 07:52:14;;;;;;;5.10;2.38;;;;;;;;;;4985610;28;20647;-74
2023/03/23 07:54:40;;;;;;;9.60;2.47;;;;;;;;;;4991308;28;20208;-74
2023/03/23 07:57:06;;;;;;;5.60;2.85;;;;;;;;;;4989010;28;20306;-73
2023/03/23 07:59:31;;;;;;;6.70;2.80;;;;;;;;;;4984745;28;20681;-73
2023/03/23 08:01:57;;;;;;;4.30;2.05;;;;;;;;;;4987865;28;20654;-73
2023/03/23 08:04:23;;;;;;;6.20;2.50;;;;;;;;;;4986622;28;20196;-73
2023/03/23 08:06:48;;;;;;;6.20;2.45;;;;;;;;;;4983175;28;20171;-73
2023/03/23 08:09:13;;;;;;;8.23;2.60;;;;;;;;;;4982466;28;20186;-74
2023/03/23 08:11:39;;;;;;;9.40;2.65;;;;;;;;;;4990868;28;20179;-72
2023/03/23 08:14:05;;;;;;;7.75;2.80;;;;;;;;;;4989019;28;20647;-72
2023/03/23 08:16:30;;;;;;;9.43;2.55;;;;;;;;;;4986994;28;20171;-72
2023/03/23 08:18:56;;;;;;;11.63;2.95;;;;;;;;;;4983628;28;20248;-72
2023/03/23 08:21:22;;;;;;;5.88;2.28;;;;;;;;;;4982170;28;20173;-72
2023/03/23 08:23:47;;;;;;;10.05;2.63;;;;;;;;;;4984842;28;20633;-71
2023/03/23 08:26:12;;;;;;;8.93;2.50;;;;;;;;;;4985289;28;20732;-71
2023/03/23 08:28:37;;;;;;;5.63;2.20;;;;;;;;;;4985437;28;20676;-71
2023/03/23 08:31:10;;;;;;;8.35;2.70;;;;;;;;;;4978597;28;20207;-74
2023/03/23 08:33:35;;;;;;;11.93;3.60;;;;;;;;;;4986149;28;20214;-73
2023/03/23 08:36:00;;;;;;;4.82;1.70;;;;;;;;;;4980789;28;20181;-73
2023/03/23 08:38:27;;;;;;;5.43;2.00;;;;;;;;;;4979543;28;20175;-73
2023/03/23 08:40:56;;;;;;;10.48;2.33;;;;;;;;;;4982828;28;20182;-73
2023/03/23 08:43:22;;;;;;;3.95;1.88;;;;;;;;;;4981346;28;20178;-73
2023/03/23 08:45:47;;;;;;;6.07;2.00;;;;;;;;;;4984356;28;20258;-73
2023/03/23 08:48:13;;;;;;;6.68;2.40;;;;;;;;;;4980720;28;20620;-73
2023/03/23 08:50:38;;;;;;;6.78;2.83;;;;;;;;;;4981381;28;20180;-73
2023/03/23 08:53:03;;;;;;;10.07;2.20;;;;;;;;;;4980752;28;20250;-73
2023/03/23 08:55:29;;;;;;;10.43;2.22;;;;;;;;;;4991129;28;20207;-73
2023/03/23 08:57:54;;;;;;;9.32;2.40;;;;;;;;;;4981662;28;20596;-73
2023/03/23 09:00:20;;;;;;;9.63;2.30;;;;;;;;;;4982132;28;20176;-73
2023/03/23 09:02:48;;;;;;;11.75;2.60;;;;;;;;;;4982495;28;20255;-72
2023/03/23 09:05:14;;;;;;;9.48;2.30;;;;;;;;;;4984047;28;20200;-72
2023/03/23 09:07:40;;;;;;;4.85;2.15;;;;;;;;;;4980949;28;20215;-72
2023/03/23 09:10:06;;;;;;;5.57;2.10;;;;;;;;;;4980196;28;20564;-72
2023/03/23 09:12:31;;;;;;;7.53;2.25;;;;;;;;;;4997342;28;20176;-72
2023/03/23 09:14:56;;;;;;;9.00;3.28;;;;;;;;;;4982587;28;20308;-72
2023/03/23 09:17:22;;;;;;;9.50;2.60;;;;;;;;;;4984782;28;20213;-72
2023/03/23 09:19:47;;;;;;;7.55;1.95;;;;;;;;;;4986846;28;20225;-72
2023/03/23 09:22:12;;;;;;;6.15;2.45;;;;;;;;;;4983493;28;20654;-71
2023/03/23 09:24:37;;;;;;;11.98;2.65;;;;;;;;;;4988598;28;20226;-72
2023/03/23 09:27:04;;;;;;;12.63;2.15;;;;;;;;;;4984367;28;20188;-72
2023/03/23 09:29:30;;;;;;;4.40;2.13;;;;;;;;;;4984832;28;20172;-72
2023/03/23 09:31:55;;;;;;;10.63;2.10;;;;;;;;;;4987565;28;20191;-72
2023/03/23 09:34:22;;;;;;;9.30;1.80;;;;;;;;;;4986594;28;20290;-72
2023/03/23 09:36:48;;;;;;;6.43;1.83;;;;;;;;;;4984896;28;20172;-72
2023/03/23 09:39:13;;;;;;;5.35;2.10;;;;;;;;;;4982946;28;20184;-72
2023/03/23 09:41:48;;;;;;;8.65;1.52;;;;;;;;;;4990116;28;20207;-72
2023/03/23 09:44:34;;;;;;;5.63;1.70;;;;;;;;;;4989800;28;20744;-72
2023/03/23 09:47:05;;;;;;;8.32;2.28;;;;;;;;;;4951186;28;20198;-72
2023/03/23 09:49:37;;;;;;;5.70;1.60;;;;;;;;;;4986771;28;20668;-72
2023/03/23 09:52:05;;;;;;;10.20;1.80;;;;;;;;;;4982871;28;20187;-72
2023/03/23 09:54:34;;;;;;;6.00;2.15;;;;;;;;;;4991732;28;20325;-72
2023/03/23 09:57:00;;;;;;;6.10;1.98;;;;;;;;;;4980374;28;20172;-72
2023/03/23 09:59:32;;;;;;;9.85;2.15;;;;;;;;;;4990072;28;20524;-72
2023/03/23 10:02:01;;;;;;;8.95;2.10;;;;;;;;;;4983189;28;20555;-72
2023/03/23 10:04:32;;;;;;;7.47;3.42;;;;;;;;;;4993728;28;20282;-72
2023/03/23 10:07:16;;;;;;;8.13;2.50;;;;;;;;;;4985010;28;20180;-72
2023/03/23 10:09:42;;;;;;;7.63;2.42;;;;;;;;;;4983017;28;20230;-72
2023/03/23 10:12:24;;;;;;;9.07;3.17;;;;;;;;;;4989469;28;20171;-72
2023/03/23 10:14:49;;;;;;;5.85;1.73;;;;;;;;;;4982453;28;20262;-72
2023/03/23 10:17:24;;;;;;;9.02;2.58;;;;;;;;;;4989937;28;20171;-72
2023/03/23 10:20:07;;;;;;;8.57;2.42;;;;;;;;;;4986018;28;20175;-72
2023/03/23 10:22:36;;;;;;;9.13;2.85;;;;;;;;;;4984362;28;20175;-71
2023/03/23 10:25:14;;;;;;;11.02;2.90;;;;;;;;;;4984964;28;20223;-72
2023/03/23 10:27:45;;;;;;;10.30;2.75;;;;;;;;;;4984558;28;20195;-72
2023/03/23 10:30:11;;;;;;;8.70;2.03;;;;;;;;;;4990760;28;20180;-71
2023/03/23 10:32:37;;;;;;;10.63;2.72;;;;;;;;;;4987224;28;20172;-72
2023/03/23 10:35:04;;;;;;;9.73;2.80;;;;;;;;;;4980475;28;20224;-72
2023/03/23 10:37:37;;;;;;;9.52;2.75;;;;;;;;;;4989276;28;20223;-72
2023/03/23 10:40:09;;;;;;;5.80;2.28;;;;;;;;;;4985258;28;20194;-72
2023/03/23 10:42:37;;;;;;;5.35;1.90;;;;;;;;;;4984451;28;20253;-72
2023/03/23 10:45:15;;;;;;;8.65;2.03;;;;;;;;;;4986839;28;20199;-72
2023/03/23 10:47:43;;;;;;;8.43;2.42;;;;;;;;;;4985946;28;20231;-72
2023/03/23 10:50:13;;;;;;;8.52;2.40;;;;;;;;;;4991825;28;20271;-72
2023/03/23 10:52:40;;;;;;;16.45;3.25;;;;;;;;;;4989531;28;20215;-70
2023/03/23 10:55:06;;;;;;;7.22;2.40;;;;;;;;;;4990792;28;20720;-73
2023/03/23 10:57:33;;;;;;;8.63;2.35;;;;;;;;;;4983865;28;20187;-73
2023/03/23 11:00:18;;;;;;;7.07;2.30;;;;;;;;;;4990691;28;20180;-72
2023/03/23 11:02:47;;;;;;;7.10;1.80;;;;;;;;;;4987559;28;20653;-72
2023/03/23 11:05:19;;;;;;;9.07;2.22;;;;;;;;;;4979611;28;20234;-73
2023/03/23 11:07:48;;;;;;;7.95;2.95;;;;;;;;;;4987983;28;20172;-72
2023/03/23 11:10:21;;;;;;;7.15;2.10;;;;;;;;;;4981681;28;20219;-73
2023/03/23 11:12:46;;;;;;;7.07;2.55;;;;;;;;;;4994394;28;20290;-72
2023/03/23 11:15:36;;;;;;;9.82;2.08;;;;;;;;;;4980186;28;20291;-72
2023/03/23 11:18:05;;;;;;;5.90;1.85;;;;;;;;;;4980466;28;20196;-72
2023/03/23 11:20:35;;;;;;;6.78;1.92;;;;;;;;;;4983841;28;20262;-72
2023/03/23 11:23:01;;;;;;;12.85;2.75;;;;;;;;;;4985049;28;20218;-72
2023/03/23 11:25:26;;;;;;;8.48;2.42;;;;;;;;;;4986894;28;20218;-72
2023/03/23 11:27:52;;;;;;;10.95;2.30;;;;;;;;;;4987708;28;20259;-72
2023/03/23 11:30:21;;;;;;;8.77;2.85;;;;;;;;;;4989883;28;20618;-72
2023/03/23 11:32:47;;;;;;;9.80;2.53;;;;;;;;;;4984152;28;20179;-72
2023/03/23 11:35:20;;;;;;;11.85;3.20;;;;;;;;;;4986632;28;20211;-72
2023/03/23 11:37:52;;;;;;;8.63;2.30;;;;;;;;;;4983862;28;20206;-72
2023/03/23 11:40:19;;;;;;;8.00;2.13;;;;;;;;;;4988778;28;20639;-72
2023/03/23 11:42:44;;;;;;;10.40;2.30;;;;;;;;;;4989820;28;20176;-72
2023/03/23 11:45:33;;;;;;;10.48;2.72;;;;;;;;;;4986719;28;20200;-72
2023/03/23 11:48:04;;;;;;;9.77;2.45;;;;;;;;;;4953601;28;20197;-72
2023/03/23 11:50:34;;;;;;;8.23;2.45;;;;;;;;;;4981297;28;20179;-72
2023/03/23 11:53:01;;;;;;;10.73;2.60;;;;;;;;;;4989230;28;20188;-72
2023/03/23 11:55:29;;;;;;;8.27;2.00;;;;;;;;;;4986411;28;20221;-72
2023/03/23 11:57:55;;;;;;;8.85;2.72;;;;;;;;;;4988002;28;20203;-72
2023/03/23 12:00:22;;;;;;;5.38;2.03;;;;;;;;;;4988494;28;20172;-72
2023/03/23 12:03:06;;;;;;;6.82;1.90;;;;;;;;;;4986451;28;20646;-72
2023/03/23 12:05:43;;;;;;;6.50;1.70;;;;;;;;;;4988326;28;20200;-71
2023/03/23 12:08:08;;;;;;;6.32;2.10;;;;;;;;;;4987885;28;20184;-72
2023/03/23 12:10:43;;;;;;;6.15;1.70;;;;;;;;;;4985654;28;20175;-72
2023/03/23 12:13:19;;;;;;;4.95;1.70;;;;;;;;;;4981766;28;20210;-72
2023/03/23 12:15:56;;;;;;;6.22;1.55;;;;;;;;;;4987705;28;20244;-71
2023/03/23 12:18:21;;;;;;;9.98;2.25;;;;;;;;;;4989016;28;20172;-71
2023/03/23 12:20:56;;;;;;;4.30;1.63;;;;;;;;;;4994607;28;20175;-72
2023/03/23 12:23:21;;;;;;;5.60;1.42;;;;;;;;;;4987697;28;20179;-72
2023/03/23 12:25:47;;;;;;;7.35;1.58;;;;;;;;;;4984231;28;20290;-73
2023/03/23 12:28:12;;;;;;;8.23;2.50;;;;;;;;;;4984227;28;20172;-72
2023/03/23 12:30:46;;;;;;;4.75;1.85;;;;;;;;;;4982677;28;20175;-72
2023/03/23 12:33:27;;;;;;;4.00;1.42;;;;;;;;;;4978122;28;20183;-72
2023/03/23 12:36:00;;;;;;;3.90;1.50;;;;;;;;;;4985567;28;20179;-72
2023/03/23 12:38:46;;;;;;;7.72;2.22;;;;;;;;;;4983307;28;20207;-72
2023/03/23 12:41:15;;;;;;;3.20;1.40;;;;;;;;;;4977520;28;20184;-73
2023/03/23 12:43:58;;;;;;;3.60;1.58;;;;;;;;;;4986253;28;20210;-73
2023/03/23 12:46:32;;;;;;;4.15;1.30;;;;;;;;;;4985955;28;20167;-70
2023/03/23 12:49:01;;;;;;;5.70;1.80;;;;;;;;;;4982958;28;20178;-70
2023/03/23 12:51:31;;;;;;;6.00;1.75;;;;;;;;;;4988829;28;20171;-72
2023/03/23 12:54:16;;;;;;;4.97;1.50;;;;;;;;;;4990731;28;20261;-72
2023/03/23 12:56:41;;;;;;;4.20;1.30;;;;;;;;;;4984455;28;20275;-72
2023/03/23 12:59:06;;;;;;;6.20;1.88;;;;;;;;;;4993002;28;20613;-72
2023/03/23 13:01:34;;;;;;;4.70;2.15;;;;;;;;;;4987030;28;20183;-72
2023/03/23 13:04:03;;;;;;;6.47;2.25;;;;;;;;;;4983716;28;20690;-71
2023/03/23 13:06:34;;;;;;;5.47;1.33;;;;;;;;;;4987668;28;20186;-72
2023/03/23 13:09:03;;;;;;;6.13;1.52;;;;;;;;;;4985605;28;20194;-72
2023/03/23 13:11:36;;;;;;;8.82;1.60;;;;;;;;;;4985856;28;20267;-72
2023/03/23 13:14:06;;;;;;;3.85;1.13;;;;;;;;;;4985961;28;20237;-72
2023/03/23 13:16:37;;;;;;;7.82;1.52;;;;;;;;;;4987247;28;20353;-72
2023/03/23 13:19:21;;;;;;;6.30;1.80;;;;;;;;;;4989360;28;20247;-72
2023/03/23 13:21:52;;;;;;;6.78;1.50;;;;;;;;;;4984172;28;20272;-72
2023/03/23 13:24:20;;;;;;;3.60;1.25;;;;;;;;;;4987707;28;20200;-72
2023/03/23 13:26:47;;;;;;;3.13;1.38;;;;;;;;;;4984805;28;20210;-72
2023/03/23 13:29:14;;;;;;;3.45;1.52;;;;;;;;;;4989014;28;20215;-72
2023/03/23 13:31:40;;;;;;;3.25;1.35;;;;;;;;;;4984038;28;20186;-72
2023/03/23 13:34:15;;;;;;;6.57;2.20;;;;;;;;;;4983835;28;20205;-72
2023/03/23 13:36:44;;;;;;;7.60;1.77;;;;;;;;;;4988059;28;20266;-72
2023/03/23 13:39:18;;;;;;;11.98;2.83;;;;;;;;;;4980409;28;20536;-72
2023/03/23 13:41:59;;;;;;;6.25;1.65;;;;;;;;;;4983460;28;20585;-72
2023/03/23 13:44:26;;;;;;;5.53;1.65;;;;;;;;;;4989131;28;20259;-72
2023/03/23 13:47:06;;;;;;;6.10;1.73;;;;;;;;;;4985857;28;20249;-72
2023/03/23 13:49:32;;;;;;;9.25;1.88;;;;;;;;;;4991700;28;20172;-71
2023/03/23 13:52:06;;;;;;;6.07;2.17;;;;;;;;;;4984672;28;20207;-71
2023/03/23 13:54:43;;;;;;;4.43;1.58;;;;;;;;;;4990775;28;20242;-71
2023/03/23 13:57:28;;;;;;;5.60;2.40;;;;;;;;;;4983215;28;20222;-71
2023/03/23 13:59:57;;;;;;;7.28;2.13;;;;;;;;;;4985064;28;20200;-72
2023/03/23 14:02:41;;;;;;;6.07;2.50;;;;;;;;;;4990388;28;20530;-72
2023/03/23 14:05:29;;;;;;;8.77;1.98;;;;;;;;;;4980907;28;20258;-72
2023/03/23 14:07:56;;;;;;;4.88;1.67;;;;;;;;;;4984983;28;20188;-71
2023/03/23 14:10:22;;;;;;;8.80;1.52;;;;;;;;;;4983757;28;20223;-73
2023/03/23 14:12:50;;;;;;;5.75;1.48;;;;;;;;;;4994149;28;20180;-73
2023/03/23 14:15:16;;;;;;;3.50;2.00;;;;;;;;;;4982085;28;20243;-73
2023/03/23 14:17:43;;;;;;;9.15;1.67;;;;;;;;;;4989371;28;20624;-72
2023/03/23 14:20:18;;;;;;;5.13;1.70;;;;;;;;;;4987249;28;20179;-73
2023/03/23 14:22:43;;;;;;;7.10;1.75;;;;;;;;;;4980367;28;20172;-72
2023/03/23 14:25:12;;;;;;;6.68;2.00;;;;;;;;;;4988807;28;20302;-72
2023/03/23 14:27:38;;;;;;;10.15;2.63;;;;;;;;;;4985335;28;20194;-71
2023/03/23 14:30:06;;;;;;;8.55;2.15;;;;;;;;;;4984702;28;20582;-73
2023/03/23 14:32:32;;;;;;;11.85;2.17;;;;;;;;;;4984257;28;20246;-73
2023/03/23 14:34:58;;;;;;;6.22;2.35;;;;;;;;;;4992512;28;20203;-73
2023/03/23 14:37:23;;;;;;;10.32;2.20;;;;;;;;;;4983726;28;20181;-73
2023/03/23 14:39:53;;;;;;;5.10;1.38;;;;;;;;;;4982425;28;20295;-71
2023/03/23 14:42:21;;;;;;;5.47;1.60;;;;;;;;;;4990885;28;20259;-73
2023/03/23 14:44:48;;;;;;;9.15;2.38;;;;;;;;;;4984537;28;20204;-73
2023/03/23 14:47:15;;;;;;;9.30;1.70;;;;;;;;;;4980746;28;20262;-72